sensor_id;sensor_type;location;lat;lon;timestamp;pressure;altitude;pressure_sealevel;temperature;humidity
34961;BME280;30789;52.030;7.110;2023-08-21T00:01:43;101557.03;;;18.85;80.28
34961;BME280;30789;52.030;7.110;2023-08-21T00:04:09;101557.44;;;18.84;80.02
34961;BME280;30789;52.030;7.110;2023-08-21T00:06:36;101557.47;;;18.80;79.96
34961;BME280;30789;52.030;7.110;2023-08-21T00:09:04;101557.03;;;18.85;80.31
34961;BME280;30789;52.030;7.110;2023-08-21T00:11:30;101558.59;;;18.86;79.66
34961;BME280;30789;52.030;7.110;2023-08-21T00:13:57;101553.31;;;18.92;79.29
34961;BME280;30789;52.030;7.110;2023-08-21T00:16:23;101560.50;;;18.93;78.96
34961;BME280;30789;52.030;7.110;2023-08-21T00:18:51;101552.22;;;18.86;78.91
34961;BME280;30789;52.030;7.110;2023-08-21T00:21:18;101555.16;;;18.75;80.01
34961;BME280;30789;52.030;7.110;2023-08-21T00:23:45;101547.16;;;18.77;79.38
34961;BME280;30789;52.030;7.110;2023-08-21T00:26:13;101546.84;;;18.72;80.23
34961;BME280;30789;52.030;7.110;2023-08-21T00:28:39;101547.72;;;18.65;80.69
34961;BME280;30789;52.030;7.110;2023-08-21T00:31:06;101546.22;;;18.57;81.35
34961;BME280;30789;52.030;7.110;2023-08-21T00:33:34;101545.53;;;18.49;81.87
34961;BME280;30789;52.030;7.110;2023-08-21T00:36:02;101543.66;;;18.39;81.93
34961;BME280;30789;52.030;7.110;2023-08-21T00:38:29;101554.72;;;18.46;82.20
34961;BME280;30789;52.030;7.110;2023-08-21T00:40:55;101544.66;;;18.56;81.32
34961;BME280;30789;52.030;7.110;2023-08-21T00:43:24;101549.38;;;18.59;81.17
34961;BME280;30789;52.030;7.110;2023-08-21T00:45:50;101541.50;;;18.50;81.43
34961;BME280;30789;52.030;7.110;2023-08-21T00:48:17;101545.47;;;18.53;81.88
34961;BME280;30789;52.030;7.110;2023-08-21T00:50:45;101546.66;;;18.52;81.01
34961;BME280;30789;52.030;7.110;2023-08-21T00:53:12;101545.94;;;18.48;81.71
34961;BME280;30789;52.030;7.110;2023-08-21T00:55:40;101547.63;;;18.38;81.38
34961;BME280;30789;52.030;7.110;2023-08-21T00:58:08;101547.19;;;18.43;82.06
34961;BME280;30789;52.030;7.110;2023-08-21T01:00:37;101545.56;;;18.46;81.72
34961;BME280;30789;52.030;7.110;2023-08-21T01:03:04;101547.16;;;18.47;81.85
34961;BME280;30789;52.030;7.110;2023-08-21T01:05:30;101546.44;;;18.39;82.22
34961;BME280;30789;52.030;7.110;2023-08-21T01:08:00;101546.19;;;18.23;81.98
34961;BME280;30789;52.030;7.110;2023-08-21T01:10:36;101556.69;;;18.09;82.69
34961;BME280;30789;52.030;7.110;2023-08-21T01:13:09;101555.22;;;18.01;83.74
34961;BME280;30789;52.030;7.110;2023-08-21T01:15:39;101539.63;;;18.03;82.76
34961;BME280;30789;52.030;7.110;2023-08-21T01:18:06;101541.28;;;17.97;83.26
34961;BME280;30789;52.030;7.110;2023-08-21T01:20:34;101546.84;;;18.01;83.23
34961;BME280;30789;52.030;7.110;2023-08-21T01:23:03;101545.31;;;17.93;82.89
34961;BME280;30789;52.030;7.110;2023-08-21T01:25:32;101547.81;;;17.84;83.57
34961;BME280;30789;52.030;7.110;2023-08-21T01:27:58;101541.03;;;17.81;83.85
34961;BME280;30789;52.030;7.110;2023-08-21T01:30:26;101548.63;;;17.81;83.76
34961;BME280;30789;52.030;7.110;2023-08-21T01:33:01;101540.28;;;17.81;84.46
34961;BME280;30789;52.030;7.110;2023-08-21T01:35:33;101542.22;;;17.84;84.16
34961;BME280;30789;52.030;7.110;2023-08-21T01:38:01;101538.63;;;17.87;84.51
34961;BME280;30789;52.030;7.110;2023-08-21T01:40:27;101540.59;;;17.86;84.78
34961;BME280;30789;52.030;7.110;2023-08-21T01:42:55;101534.19;;;17.89;84.63
34961;BME280;30789;52.030;7.110;2023-08-21T01:45:22;101535.44;;;17.85;84.13
34961;BME280;30789;52.030;7.110;2023-08-21T01:47:48;101541.47;;;17.80;83.88
34961;BME280;30789;52.030;7.110;2023-08-21T01:50:15;101551.47;;;17.74;84.47
34961;BME280;30789;52.030;7.110;2023-08-21T01:52:42;101549.50;;;17.71;83.97
34961;BME280;30789;52.030;7.110;2023-08-21T01:55:09;101551.63;;;17.60;83.96
34961;BME280;30789;52.030;7.110;2023-08-21T01:57:35;101551.25;;;17.54;84.77
34961;BME280;30789;52.030;7.110;2023-08-21T02:00:04;101542.56;;;17.49;85.15
34961;BME280;30789;52.030;7.110;2023-08-21T02:02:32;101551.22;;;17.58;85.34
34961;BME280;30789;52.030;7.110;2023-08-21T02:04:58;101542.16;;;17.50;84.94
34961;BME280;30789;52.030;7.110;2023-08-21T02:07:25;101533.31;;;17.55;85.18
34961;BME280;30789;52.030;7.110;2023-08-21T02:09:51;101538.47;;;17.60;85.44
34961;BME280;30789;52.030;7.110;2023-08-21T02:12:18;101536.09;;;17.59;85.28
34961;BME280;30789;52.030;7.110;2023-08-21T02:14:44;101539.69;;;17.56;85.42
34961;BME280;30789;52.030;7.110;2023-08-21T02:17:12;101547.66;;;17.54;85.62
34961;BME280;30789;52.030;7.110;2023-08-21T02:19:39;101542.47;;;17.56;85.43
34961;BME280;30789;52.030;7.110;2023-08-21T02:22:06;101541.28;;;17.57;86.07
34961;BME280;30789;52.030;7.110;2023-08-21T02:24:32;101532.06;;;17.63;86.36
34961;BME280;30789;52.030;7.110;2023-08-21T02:26:59;101540.75;;;17.72;85.65
34961;BME280;30789;52.030;7.110;2023-08-21T02:29:25;101541.94;;;17.75;85.62
34961;BME280;30789;52.030;7.110;2023-08-21T02:31:51;101541.13;;;17.74;85.03
34961;BME280;30789;52.030;7.110;2023-08-21T02:34:19;101538.31;;;17.78;84.87
34961;BME280;30789;52.030;7.110;2023-08-21T02:36:46;101537.41;;;17.88;84.52
34961;BME280;30789;52.030;7.110;2023-08-21T02:39:12;101542.56;;;17.89;84.30
34961;BME280;30789;52.030;7.110;2023-08-21T02:41:39;101545.31;;;17.93;83.65
34961;BME280;30789;52.030;7.110;2023-08-21T02:44:05;101539.41;;;17.87;84.20
34961;BME280;30789;52.030;7.110;2023-08-21T02:46:32;101545.41;;;17.86;84.00
34961;BME280;30789;52.030;7.110;2023-08-21T02:49:00;101548.97;;;17.86;83.86
34961;BME280;30789;52.030;7.110;2023-08-21T02:51:28;101548.94;;;17.90;83.86
34961;BME280;30789;52.030;7.110;2023-08-21T02:53:55;101543.75;;;17.92;83.70
34961;BME280;30789;52.030;7.110;2023-08-21T02:56:21;101542.66;;;17.82;84.52
34961;BME280;30789;52.030;7.110;2023-08-21T02:58:48;101543.06;;;17.81;83.40
34961;BME280;30789;52.030;7.110;2023-08-21T03:01:14;101546.63;;;17.81;83.59
34961;BME280;30789;52.030;7.110;2023-08-21T03:03:42;101542.25;;;17.80;83.84
34961;BME280;30789;52.030;7.110;2023-08-21T03:06:08;101539.13;;;17.75;84.46
34961;BME280;30789;52.030;7.110;2023-08-21T03:08:36;101544.31;;;17.76;84.72
34961;BME280;30789;52.030;7.110;2023-08-21T03:11:03;101544.25;;;17.80;84.68
34961;BME280;30789;52.030;7.110;2023-08-21T03:13:29;101540.28;;;17.77;84.64
34961;BME280;30789;52.030;7.110;2023-08-21T03:15:56;101537.06;;;17.82;83.44
34961;BME280;30789;52.030;7.110;2023-08-21T03:18:22;101539.38;;;17.91;83.63
34961;BME280;30789;52.030;7.110;2023-08-21T03:20:49;101531.31;;;18.00;83.14
34961;BME280;30789;52.030;7.110;2023-08-21T03:23:15;101533.63;;;18.08;83.04
34961;BME280;30789;52.030;7.110;2023-08-21T03:25:43;101534.47;;;18.02;82.22
34961;BME280;30789;52.030;7.110;2023-08-21T03:28:10;101540.06;;;17.98;83.15
34961;BME280;30789;52.030;7.110;2023-08-21T03:30:39;101539.66;;;18.00;82.61
34961;BME280;30789;52.030;7.110;2023-08-21T03:33:05;101545.22;;;18.03;81.77
34961;BME280;30789;52.030;7.110;2023-08-21T03:35:33;101546.78;;;18.04;81.26
34961;BME280;30789;52.030;7.110;2023-08-21T03:37:59;101538.00;;;18.06;83.22
34961;BME280;30789;52.030;7.110;2023-08-21T03:40:26;101537.56;;;18.11;82.89
34961;BME280;30789;52.030;7.110;2023-08-21T03:42:54;101541.63;;;18.03;83.42
34961;BME280;30789;52.030;7.110;2023-08-21T03:45:20;101543.66;;;17.99;83.02
34961;BME280;30789;52.030;7.110;2023-08-21T03:47:47;101537.69;;;18.00;83.11
34961;BME280;30789;52.030;7.110;2023-08-21T03:50:13;101544.81;;;18.01;82.97
34961;BME280;30789;52.030;7.110;2023-08-21T03:52:40;101544.81;;;18.01;83.16
34961;BME280;30789;52.030;7.110;2023-08-21T03:55:09;101545.22;;;18.03;83.42
34961;BME280;30789;52.030;7.110;2023-08-21T03:57:36;101537.66;;;18.04;83.02
34961;BME280;30789;52.030;7.110;2023-08-21T04:00:05;101541.28;;;18.01;83.70
34961;BME280;30789;52.030;7.110;2023-08-21T04:02:33;101537.28;;;17.98;83.52
34961;BME280;30789;52.030;7.110;2023-08-21T04:04:59;101530.84;;;18.05;83.49
34961;BME280;30789;52.030;7.110;2023-08-21T04:07:26;101526.53;;;18.00;83.34
34961;BME280;30789;52.030;7.110;2023-08-21T04:09:52;101530.53;;;17.99;83.36
34961;BME280;30789;52.030;7.110;2023-08-21T04:12:19;101527.06;;;17.88;83.39
34961;BME280;30789;52.030;7.110;2023-08-21T04:14:45;101530.66;;;17.85;83.81
34961;BME280;30789;52.030;7.110;2023-08-21T04:17:13;101530.94;;;17.98;83.93
34961;BME280;30789;52.030;7.110;2023-08-21T04:19:40;101531.72;;;17.98;83.38
34961;BME280;30789;52.030;7.110;2023-08-21T04:22:06;101528.16;;;17.98;83.73
34961;BME280;30789;52.030;7.110;2023-08-21T04:24:33;101538.47;;;18.01;83.69
34961;BME280;30789;52.030;7.110;2023-08-21T04:26:59;101537.78;;;17.90;82.92
34961;BME280;30789;52.030;7.110;2023-08-21T04:29:26;101534.25;;;17.86;83.82
34961;BME280;30789;52.030;7.110;2023-08-21T04:31:52;101543.88;;;17.78;84.08
34961;BME280;30789;52.030;7.110;2023-08-21T04:34:25;101546.69;;;17.74;83.81
34961;BME280;30789;52.030;7.110;2023-08-21T04:36:51;101538.91;;;17.55;85.30
34961;BME280;30789;52.030;7.110;2023-08-21T04:39:20;101538.47;;;17.57;85.49
34961;BME280;30789;52.030;7.110;2023-08-21T04:41:49;101550.44;;;17.57;85.06
34961;BME280;30789;52.030;7.110;2023-08-21T04:44:16;101545.97;;;17.67;84.83
34961;BME280;30789;52.030;7.110;2023-08-21T04:46:47;101548.91;;;17.49;85.39
34961;BME280;30789;52.030;7.110;2023-08-21T04:49:16;101548.94;;;17.46;86.94
34961;BME280;30789;52.030;7.110;2023-08-21T04:51:48;101549.28;;;17.55;85.61
34961;BME280;30789;52.030;7.110;2023-08-21T04:54:14;101544.44;;;17.59;85.84
34961;BME280;30789;52.030;7.110;2023-08-21T04:56:41;101553.19;;;17.61;86.00
34961;BME280;30789;52.030;7.110;2023-08-21T04:59:08;101549.25;;;17.58;86.47
34961;BME280;30789;52.030;7.110;2023-08-21T05:01:36;101559.91;;;17.67;85.51
34961;BME280;30789;52.030;7.110;2023-08-21T05:04:06;101554.66;;;17.72;86.03
34961;BME280;30789;52.030;7.110;2023-08-21T05:06:34;101563.91;;;17.66;86.19
34961;BME280;30789;52.030;7.110;2023-08-21T05:09:02;101569.41;;;17.73;85.77
34961;BME280;30789;52.030;7.110;2023-08-21T05:11:29;101574.16;;;17.76;84.73
34961;BME280;30789;52.030;7.110;2023-08-21T05:13:55;101561.22;;;17.96;84.43
34961;BME280;30789;52.030;7.110;2023-08-21T05:16:25;101566.72;;;18.03;84.82
34961;BME280;30789;52.030;7.110;2023-08-21T05:18:51;101566.38;;;18.01;84.10
34961;BME280;30789;52.030;7.110;2023-08-21T05:21:21;101571.47;;;18.06;83.52
34961;BME280;30789;52.030;7.110;2023-08-21T05:23:47;101565.03;;;18.12;83.08
34961;BME280;30789;52.030;7.110;2023-08-21T05:26:19;101568.97;;;18.18;82.62
34961;BME280;30789;52.030;7.110;2023-08-21T05:28:46;101569.03;;;18.15;83.06
34961;BME280;30789;52.030;7.110;2023-08-21T05:31:14;101571.44;;;18.09;83.56
34961;BME280;30789;52.030;7.110;2023-08-21T05:33:44;101574.59;;;18.15;82.72
34961;BME280;30789;52.030;7.110;2023-08-21T05:36:10;101578.22;;;18.12;81.91
34961;BME280;30789;52.030;7.110;2023-08-21T05:38:37;101575.78;;;18.14;81.85
34961;BME280;30789;52.030;7.110;2023-08-21T05:41:03;101570.22;;;18.14;82.29
34961;BME280;30789;52.030;7.110;2023-08-21T05:43:31;101576.56;;;18.18;81.91
34961;BME280;30789;52.030;7.110;2023-08-21T05:45:58;101584.13;;;18.17;82.19
34961;BME280;30789;52.030;7.110;2023-08-21T05:48:24;101586.22;;;18.06;83.08
34961;BME280;30789;52.030;7.110;2023-08-21T05:50:51;101581.47;;;18.03;83.25
34961;BME280;30789;52.030;7.110;2023-08-21T05:53:18;101589.88;;;18.00;84.28
34961;BME280;30789;52.030;7.110;2023-08-21T05:55:45;101585.00;;;18.07;83.39
34961;BME280;30789;52.030;7.110;2023-08-21T05:58:11;101590.16;;;18.12;83.11
34961;BME280;30789;52.030;7.110;2023-08-21T06:00:39;101592.53;;;18.14;82.45
34961;BME280;30789;52.030;7.110;2023-08-21T06:03:06;101590.94;;;18.16;83.84
34961;BME280;30789;52.030;7.110;2023-08-21T06:05:32;101593.25;;;18.21;82.36
34961;BME280;30789;52.030;7.110;2023-08-21T06:07:59;101595.16;;;18.31;81.59
34961;BME280;30789;52.030;7.110;2023-08-21T06:10:26;101597.88;;;18.35;81.47
34961;BME280;30789;52.030;7.110;2023-08-21T06:12:53;101602.28;;;18.39;81.26
34961;BME280;30789;52.030;7.110;2023-08-21T06:15:19;101602.88;;;18.54;80.35
34961;BME280;30789;52.030;7.110;2023-08-21T06:17:47;101605.50;;;18.68;79.20
34961;BME280;30789;52.030;7.110;2023-08-21T06:20:16;101612.19;;;18.78;79.29
34961;BME280;30789;52.030;7.110;2023-08-21T06:22:45;101602.88;;;18.88;80.45
34961;BME280;30789;52.030;7.110;2023-08-21T06:25:11;101609.16;;;18.95;79.80
34961;BME280;30789;52.030;7.110;2023-08-21T06:27:39;101607.00;;;19.06;78.89
34961;BME280;30789;52.030;7.110;2023-08-21T06:30:06;101615.63;;;19.19;77.80
34961;BME280;30789;52.030;7.110;2023-08-21T06:32:33;101612.28;;;19.31;77.15
34961;BME280;30789;52.030;7.110;2023-08-21T06:35:04;101609.06;;;19.32;77.41
34961;BME280;30789;52.030;7.110;2023-08-21T06:37:31;101599.16;;;19.28;76.59
34961;BME280;30789;52.030;7.110;2023-08-21T06:39:57;101607.50;;;19.31;77.27
34961;BME280;30789;52.030;7.110;2023-08-21T06:42:24;101601.53;;;19.29;77.16
34961;BME280;30789;52.030;7.110;2023-08-21T06:44:57;101604.69;;;19.31;78.19
34961;BME280;30789;52.030;7.110;2023-08-21T06:47:23;101602.38;;;19.23;77.16
34961;BME280;30789;52.030;7.110;2023-08-21T06:49:50;101605.41;;;19.35;77.59
34961;BME280;30789;52.030;7.110;2023-08-21T06:52:18;101596.13;;;19.42;76.34
34961;BME280;30789;52.030;7.110;2023-08-21T06:54:45;101598.78;;;19.52;76.12
34961;BME280;30789;52.030;7.110;2023-08-21T06:57:11;101601.53;;;19.56;75.76
34961;BME280;30789;52.030;7.110;2023-08-21T06:59:38;101599.44;;;19.60;75.19
34961;BME280;30789;52.030;7.110;2023-08-21T07:02:05;101598.38;;;19.77;75.45
34961;BME280;30789;52.030;7.110;2023-08-21T07:04:35;101601.47;;;19.82;74.46
34961;BME280;30789;52.030;7.110;2023-08-21T07:07:02;101599.28;;;19.93;72.47
34961;BME280;30789;52.030;7.110;2023-08-21T07:09:31;101604.56;;;20.11;72.75
34961;BME280;30789;52.030;7.110;2023-08-21T07:11:58;101609.91;;;20.25;73.09
34961;BME280;30789;52.030;7.110;2023-08-21T07:14:24;101599.41;;;20.33;72.45
34961;BME280;30789;52.030;7.110;2023-08-21T07:16:51;101601.13;;;20.46;71.87
34961;BME280;30789;52.030;7.110;2023-08-21T07:19:17;101605.16;;;20.65;70.52
34961;BME280;30789;52.030;7.110;2023-08-21T07:21:44;101606.88;;;20.59;70.49
34961;BME280;30789;52.030;7.110;2023-08-21T07:24:10;101615.56;;;20.64;70.53
34961;BME280;30789;52.030;7.110;2023-08-21T07:26:38;101616.28;;;20.68;70.09
34961;BME280;30789;52.030;7.110;2023-08-21T07:29:05;101618.16;;;20.75;70.48
34961;BME280;30789;52.030;7.110;2023-08-21T07:31:34;101613.81;;;20.90;69.42
34961;BME280;30789;52.030;7.110;2023-08-21T07:34:02;101613.84;;;21.09;68.64
34961;BME280;30789;52.030;7.110;2023-08-21T07:36:31;101611.75;;;21.29;68.12
34961;BME280;30789;52.030;7.110;2023-08-21T07:38:57;101608.31;;;21.41;67.03
34961;BME280;30789;52.030;7.110;2023-08-21T07:41:24;101610.66;;;21.59;67.71
34961;BME280;30789;52.030;7.110;2023-08-21T07:43:52;101618.50;;;21.67;65.85
34961;BME280;30789;52.030;7.110;2023-08-21T07:46:19;101620.19;;;21.81;67.03
34961;BME280;30789;52.030;7.110;2023-08-21T07:48:45;101614.47;;;21.84;66.11
34961;BME280;30789;52.030;7.110;2023-08-21T07:51:12;101617.03;;;21.95;65.32
34961;BME280;30789;52.030;7.110;2023-08-21T07:53:39;101614.53;;;22.13;64.96
34961;BME280;30789;52.030;7.110;2023-08-21T07:56:07;101617.19;;;22.04;64.73
34961;BME280;30789;52.030;7.110;2023-08-21T07:58:34;101617.00;;;22.11;63.41
34961;BME280;30789;52.030;7.110;2023-08-21T08:01:02;101610.84;;;22.16;62.87
34961;BME280;30789;52.030;7.110;2023-08-21T08:03:30;101615.53;;;22.35;62.84
34961;BME280;30789;52.030;7.110;2023-08-21T08:05:56;101618.34;;;22.51;62.84
34961;BME280;30789;52.030;7.110;2023-08-21T08:08:23;101621.63;;;22.62;62.92
34961;BME280;30789;52.030;7.110;2023-08-21T08:10:50;101608.94;;;22.70;63.34
34961;BME280;30789;52.030;7.110;2023-08-21T08:13:17;101616.59;;;22.70;62.35
34961;BME280;30789;52.030;7.110;2023-08-21T08:15:43;101624.00;;;22.64;61.47
34961;BME280;30789;52.030;7.110;2023-08-21T08:18:12;101626.28;;;22.81;61.87
34961;BME280;30789;52.030;7.110;2023-08-21T08:20:44;101628.03;;;22.91;62.23
34961;BME280;30789;52.030;7.110;2023-08-21T08:25:44;101616.66;;;22.95;63.67
34961;BME280;30789;52.030;7.110;2023-08-21T08:27:05;101619.50;;;23.07;63.05
34961;BME280;30789;52.030;7.110;2023-08-21T08:30:12;101624.56;;;23.12;63.25
34961;BME280;30789;52.030;7.110;2023-08-21T08:32:52;101622.28;;;23.07;60.80
34961;BME280;30789;52.030;7.110;2023-08-21T08:35:20;101621.75;;;23.12;62.16
34961;BME280;30789;52.030;7.110;2023-08-21T08:37:55;101618.19;;;23.24;62.47
34961;BME280;30789;52.030;7.110;2023-08-21T08:40:26;101620.91;;;23.28;61.36
34961;BME280;30789;52.030;7.110;2023-08-21T08:43:00;101615.50;;;23.33;61.60
34961;BME280;30789;52.030;7.110;2023-08-21T08:45:28;101619.44;;;23.48;60.87
34961;BME280;30789;52.030;7.110;2023-08-21T08:47:58;101620.91;;;23.53;56.54
34961;BME280;30789;52.030;7.110;2023-08-21T08:50:28;101623.25;;;23.80;58.35
34961;BME280;30789;52.030;7.110;2023-08-21T08:52:58;101627.31;;;23.79;59.65
34961;BME280;30789;52.030;7.110;2023-08-21T08:55:26;101622.78;;;23.81;60.78
34961;BME280;30789;52.030;7.110;2023-08-21T08:57:54;101621.31;;;23.77;57.46
34961;BME280;30789;52.030;7.110;2023-08-21T09:00:22;101625.56;;;24.19;58.43
34961;BME280;30789;52.030;7.110;2023-08-21T09:02:49;101622.31;;;24.42;57.21
34961;BME280;30789;52.030;7.110;2023-08-21T09:05:15;101631.03;;;24.56;56.42
34961;BME280;30789;52.030;7.110;2023-08-21T09:07:43;101623.41;;;24.23;56.59
34961;BME280;30789;52.030;7.110;2023-08-21T09:10:13;101620.31;;;23.96;57.93
34961;BME280;30789;52.030;7.110;2023-08-21T09:12:45;101627.28;;;23.91;57.80
34961;BME280;30789;52.030;7.110;2023-08-21T09:15:12;101623.56;;;24.07;56.14
34961;BME280;30789;52.030;7.110;2023-08-21T09:17:39;101624.00;;;24.39;57.25
34961;BME280;30789;52.030;7.110;2023-08-21T09:20:10;101629.41;;;24.46;56.45
34961;BME280;30789;52.030;7.110;2023-08-21T09:22:39;101634.88;;;24.50;56.48
34961;BME280;30789;52.030;7.110;2023-08-21T09:25:09;101633.75;;;24.60;56.79
34961;BME280;30789;52.030;7.110;2023-08-21T09:27:40;101642.13;;;24.51;56.59
34961;BME280;30789;52.030;7.110;2023-08-21T09:30:09;101632.94;;;24.59;55.54
34961;BME280;30789;52.030;7.110;2023-08-21T09:32:52;101627.47;;;24.77;53.70
34961;BME280;30789;52.030;7.110;2023-08-21T09:35:19;101623.47;;;24.87;54.25
34961;BME280;30789;52.030;7.110;2023-08-21T09:37:46;101623.16;;;24.51;54.08
34961;BME280;30789;52.030;7.110;2023-08-21T09:40:15;101624.28;;;24.66;54.62
34961;BME280;30789;52.030;7.110;2023-08-21T09:42:44;101627.56;;;24.52;55.45
34961;BME280;30789;52.030;7.110;2023-08-21T09:45:11;101629.03;;;24.57;56.25
34961;BME280;30789;52.030;7.110;2023-08-21T09:47:38;101639.19;;;24.76;55.36
34961;BME280;30789;52.030;7.110;2023-08-21T09:50:06;101623.25;;;25.03;54.46
34961;BME280;30789;52.030;7.110;2023-08-21T09:52:32;101616.63;;;25.28;53.91
34961;BME280;30789;52.030;7.110;2023-08-21T09:55:00;101617.03;;;25.39;51.68
34961;BME280;30789;52.030;7.110;2023-08-21T09:57:31;101618.03;;;25.23;53.09
34961;BME280;30789;52.030;7.110;2023-08-21T09:59:59;101620.66;;;25.18;51.91
34961;BME280;30789;52.030;7.110;2023-08-21T10:02:31;101618.03;;;25.54;51.93
34961;BME280;30789;52.030;7.110;2023-08-21T10:04:59;101618.34;;;26.14;49.77
34961;BME280;30789;52.030;7.110;2023-08-21T10:07:26;101615.09;;;27.38;48.16
34961;BME280;30789;52.030;7.110;2023-08-21T10:09:55;101601.41;;;27.69;47.69
34961;BME280;30789;52.030;7.110;2023-08-21T10:12:26;101610.28;;;27.86;46.79
34961;BME280;30789;52.030;7.110;2023-08-21T10:14:54;101614.38;;;28.70;43.78
34961;BME280;30789;52.030;7.110;2023-08-21T10:17:20;101609.44;;;29.09;42.96
34961;BME280;30789;52.030;7.110;2023-08-21T10:19:51;101608.22;;;28.19;44.04
34961;BME280;30789;52.030;7.110;2023-08-21T10:22:36;101606.22;;;28.10;44.70
34961;BME280;30789;52.030;7.110;2023-08-21T10:25:13;101613.16;;;29.00;44.39
34961;BME280;30789;52.030;7.110;2023-08-21T10:27:40;101605.97;;;28.61;46.75
34961;BME280;30789;52.030;7.110;2023-08-21T10:30:13;101602.94;;;28.79;44.11
34961;BME280;30789;52.030;7.110;2023-08-21T10:32:44;101609.44;;;29.09;42.74
34961;BME280;30789;52.030;7.110;2023-08-21T10:35:14;101605.66;;;28.59;43.93
34961;BME280;30789;52.030;7.110;2023-08-21T10:38:05;101603.44;;;28.39;44.03
34961;BME280;30789;52.030;7.110;2023-08-21T10:40:32;101605.25;;;27.90;44.87
34961;BME280;30789;52.030;7.110;2023-08-21T10:42:59;101602.75;;;27.59;45.84
34961;BME280;30789;52.030;7.110;2023-08-21T10:45:27;101601.44;;;28.16;45.69
34961;BME280;30789;52.030;7.110;2023-08-21T10:47:56;101601.56;;;28.60;45.91
34961;BME280;30789;52.030;7.110;2023-08-21T10:50:23;101595.78;;;28.55;43.48
34961;BME280;30789;52.030;7.110;2023-08-21T10:52:51;101595.06;;;28.45;42.75
34961;BME280;30789;52.030;7.110;2023-08-21T10:55:18;101593.41;;;28.15;45.04
34961;BME280;30789;52.030;7.110;2023-08-21T10:57:46;101601.69;;;28.04;45.12
34961;BME280;30789;52.030;7.110;2023-08-21T11:00:14;101597.88;;;28.30;44.67
34961;BME280;30789;52.030;7.110;2023-08-21T11:02:44;101591.41;;;28.68;43.01
34961;BME280;30789;52.030;7.110;2023-08-21T11:05:12;101598.28;;;28.91;43.67
34961;BME280;30789;52.030;7.110;2023-08-21T11:07:40;101599.16;;;29.26;41.57
34961;BME280;30789;52.030;7.110;2023-08-21T11:10:10;101598.09;;;29.23;42.03
34961;BME280;30789;52.030;7.110;2023-08-21T11:12:37;101593.34;;;28.62;40.99
34961;BME280;30789;52.030;7.110;2023-08-21T11:15:05;101593.97;;;28.95;41.78
34961;BME280;30789;52.030;7.110;2023-08-21T11:17:32;101597.25;;;30.47;38.60
34961;BME280;30789;52.030;7.110;2023-08-21T11:20:02;101603.50;;;32.01;37.77
34961;BME280;30789;52.030;7.110;2023-08-21T11:22:31;101601.81;;;31.15;37.70
34961;BME280;30789;52.030;7.110;2023-08-21T11:24:58;101598.03;;;30.47;39.60
34961;BME280;30789;52.030;7.110;2023-08-21T11:27:25;101592.41;;;30.78;39.57
34961;BME280;30789;52.030;7.110;2023-08-21T11:29:52;101608.75;;;31.77;36.67
34961;BME280;30789;52.030;7.110;2023-08-21T11:32:20;101604.28;;;32.82;35.98
34961;BME280;30789;52.030;7.110;2023-08-21T11:34:48;101607.13;;;33.92;33.75
34961;BME280;30789;52.030;7.110;2023-08-21T11:37:18;101609.72;;;33.85;33.53
34961;BME280;30789;52.030;7.110;2023-08-21T11:39:47;101610.22;;;32.67;34.98
34961;BME280;30789;52.030;7.110;2023-08-21T11:42:14;101619.25;;;30.97;38.11
34961;BME280;30789;52.030;7.110;2023-08-21T11:44:46;101608.69;;;29.92;39.17
34961;BME280;30789;52.030;7.110;2023-08-21T11:47:13;101611.69;;;29.19;41.44
34961;BME280;30789;52.030;7.110;2023-08-21T11:49:42;101609.59;;;28.62;43.26
34961;BME280;30789;52.030;7.110;2023-08-21T11:52:09;101610.19;;;28.66;45.52
34961;BME280;30789;52.030;7.110;2023-08-21T11:54:38;101610.69;;;30.46;41.14
34961;BME280;30789;52.030;7.110;2023-08-21T11:57:07;101607.09;;;31.59;39.10
34961;BME280;30789;52.030;7.110;2023-08-21T11:59:34;101601.19;;;31.00;38.45
34961;BME280;30789;52.030;7.110;2023-08-21T12:02:01;101599.00;;;29.64;40.87
34961;BME280;30789;52.030;7.110;2023-08-21T12:04:28;101590.63;;;30.55;39.64
34961;BME280;30789;52.030;7.110;2023-08-21T12:06:54;101594.13;;;30.05;40.51
34961;BME280;30789;52.030;7.110;2023-08-21T12:09:21;101586.94;;;29.89;40.13
34961;BME280;30789;52.030;7.110;2023-08-21T12:11:49;101588.72;;;30.07;41.77
34961;BME280;30789;52.030;7.110;2023-08-21T12:14:15;101584.47;;;30.37;41.42
34961;BME280;30789;52.030;7.110;2023-08-21T12:16:42;101584.28;;;29.65;41.83
34961;BME280;30789;52.030;7.110;2023-08-21T12:19:10;101574.97;;;28.72;44.24
34961;BME280;30789;52.030;7.110;2023-08-21T12:21:40;101577.88;;;28.49;46.16
34961;BME280;30789;52.030;7.110;2023-08-21T12:24:08;101577.91;;;28.78;45.25
34961;BME280;30789;52.030;7.110;2023-08-21T12:26:34;101573.22;;;28.60;43.88
34961;BME280;30789;52.030;7.110;2023-08-21T12:29:02;101579.66;;;28.75;43.36
34961;BME280;30789;52.030;7.110;2023-08-21T12:31:32;101574.25;;;29.35;41.41
34961;BME280;30789;52.030;7.110;2023-08-21T12:33:59;101573.03;;;28.93;41.83
34961;BME280;30789;52.030;7.110;2023-08-21T12:36:25;101570.94;;;28.93;42.95
34961;BME280;30789;52.030;7.110;2023-08-21T12:38:52;101566.19;;;28.85;42.12
34961;BME280;30789;52.030;7.110;2023-08-21T12:44:26;101567.47;;;30.02;41.91
34961;BME280;30789;52.030;7.110;2023-08-21T12:49:38;101570.66;;;30.30;38.74
34961;BME280;30789;52.030;7.110;2023-08-21T12:52:05;101569.09;;;31.31;36.47
34961;BME280;30789;52.030;7.110;2023-08-21T12:54:38;101568.41;;;31.89;34.60
34961;BME280;30789;52.030;7.110;2023-08-21T12:57:06;101571.94;;;32.32;36.23
34961;BME280;30789;52.030;7.110;2023-08-21T12:59:56;101573.72;;;32.13;33.14
34961;BME280;30789;52.030;7.110;2023-08-21T13:02:25;101567.69;;;31.21;33.42